Time;durP1;ratioP1;P1;durP2;ratioP2;P2;SDS_P1;SDS_P2;PMS_P1;PMS_P2;Temp;Humidity;BMP_temperature;BMP_pressure;BME280_temperature;BME280_humidity;BME280_pressure;Samples;Min_cycle;Max_cycle;Signal;HPM_P1;HPM_P2
2023/08/31 00:02:26;;;;;;;6.07;5.50;;;13.70;99.90;;;13.53;100.00;97300.72;5093421;28;20546;-71
2023/08/31 00:04:54;;;;;;;6.20;5.70;;;13.70;99.90;;;13.54;100.00;97295.00;5094751;28;20449;-71
2023/08/31 00:07:22;;;;;;;5.53;5.03;;;13.70;99.90;;;13.48;100.00;97304.19;5088973;28;20448;-71
2023/08/31 00:09:50;;;;;;;6.53;5.60;;;13.70;99.90;;;13.41;100.00;97308.91;5094377;28;20485;-71
2023/08/31 00:12:19;;;;;;;8.93;5.50;;;13.70;99.90;;;13.43;100.00;97304.09;5092061;28;20458;-69
2023/08/31 00:14:46;;;;;;;5.67;5.17;;;13.70;99.90;;;13.38;100.00;97296.69;5093347;28;20451;-71
2023/08/31 00:17:13;;;;;;;6.37;5.77;;;13.70;99.90;;;13.26;100.00;97302.22;5090280;28;20934;-71
2023/08/31 00:19:40;;;;;;;4.87;4.47;;;13.70;99.90;;;13.23;100.00;97297.28;5092775;28;20466;-71
2023/08/31 00:22:08;;;;;;;5.43;4.97;;;13.60;99.90;;;13.15;100.00;97303.16;5093056;28;20486;-71
2023/08/31 00:24:36;;;;;;;5.27;4.77;;;13.50;99.90;;;13.26;100.00;97299.50;5094008;28;20446;-70
2023/08/31 00:27:06;;;;;;;5.23;4.23;;;13.60;99.90;;;13.34;100.00;97308.28;5092507;28;20452;-71
2023/08/31 00:29:35;;;;;;;4.87;4.37;;;13.60;99.90;;;13.38;100.00;97301.28;5094078;28;20503;-72
2023/08/31 00:32:03;;;;;;;4.47;4.13;;;13.60;99.90;;;12.73;100.00;97199.56;5093246;28;20458;-71
2023/08/31 00:34:30;;;;;;;5.60;4.73;;;13.60;99.90;;;13.38;100.00;97266.03;5092773;28;20442;-71
2023/08/31 00:36:57;;;;;;;5.47;4.93;;;13.50;99.90;;;13.31;100.00;97274.34;5093560;28;20479;-73
2023/08/31 00:39:24;;;;;;;5.50;5.10;;;13.60;99.90;;;13.20;100.00;97267.97;5092523;28;20446;-71
2023/08/31 00:41:54;;;;;;;5.93;4.73;;;13.60;99.90;;;13.35;100.00;97263.81;5083428;28;20457;-71
2023/08/31 00:44:22;;;;;;;5.70;5.20;;;13.60;99.90;;;13.27;100.00;97268.63;5084340;28;20792;-70
2023/08/31 00:46:51;;;;;;;6.10;5.50;;;13.50;99.90;;;12.73;100.00;97194.13;5093841;28;20576;-70
2023/08/31 00:49:18;;;;;;;6.53;5.60;;;13.50;99.90;;;13.22;100.00;97290.22;5092250;28;20450;-70
2023/08/31 00:51:50;;;;;;;6.13;5.53;;;13.50;99.90;;;13.32;100.00;97293.09;5090206;28;20817;-70
2023/08/31 00:54:18;;;;;;;7.33;5.70;;;13.50;99.90;;;13.30;100.00;97288.97;5093551;28;20453;-71
2023/08/31 00:56:45;;;;;;;6.30;5.73;;;13.50;99.90;;;13.23;100.00;97300.00;5092038;28;20550;-70
2023/08/31 00:59:14;;;;;;;5.70;5.20;;;13.50;99.90;;;13.28;100.00;97289.25;5092066;28;20447;-70
2023/08/31 01:01:52;;;;;;;5.30;4.80;;;13.50;99.90;;;13.21;100.00;97307.59;5092537;28;20459;-70
2023/08/31 01:04:27;;;;;;;4.87;4.50;;;13.50;99.90;;;13.07;100.00;97292.72;5091830;28;20435;-70
2023/08/31 01:07:02;;;;;;;5.33;4.60;;;13.40;99.90;;;13.20;100.00;97305.94;5093552;28;20457;-70
2023/08/31 01:09:37;;;;;;;5.40;4.90;;;13.40;99.90;;;13.18;100.00;97308.09;5100432;28;20507;-71
2023/08/31 01:12:08;;;;;;;4.73;4.23;;;13.50;99.90;;;13.23;100.00;97305.44;5089004;28;20814;-70
2023/08/31 01:14:44;;;;;;;4.20;3.90;;;13.40;99.90;;;13.32;100.00;97303.94;5101074;28;20458;-71
2023/08/31 01:17:14;;;;;;;7.30;4.50;;;13.50;99.90;;;13.29;100.00;97307.16;5091636;28;20586;-70
2023/08/31 01:19:48;;;;;;;4.63;4.23;;;13.50;99.90;;;13.23;100.00;97308.16;5092723;28;20443;-70
2023/08/31 01:22:25;;;;;;;4.30;4.00;;;13.50;99.90;;;13.27;100.00;97331.00;5090437;28;20540;-70
2023/08/31 01:24:55;;;;;;;4.93;4.53;;;13.50;99.90;;;13.30;100.00;97335.94;5093069;28;20947;-70
2023/08/31 01:27:22;;;;;;;5.77;4.70;;;13.50;99.90;;;13.26;100.00;97326.63;5088225;28;20800;-69
2023/08/31 01:29:50;;;;;;;5.13;4.70;;;13.50;99.90;;;13.30;100.00;97321.53;5093052;28;20466;-71
2023/08/31 01:32:17;;;;;;;5.53;5.03;;;13.50;99.90;;;13.27;100.00;97316.63;5091836;28;20470;-70
2023/08/31 01:34:44;;;;;;;4.43;4.03;;;13.60;99.90;;;13.28;100.00;97316.38;5092342;28;20520;-70
2023/08/31 01:37:16;;;;;;;6.03;4.43;;;13.50;99.90;;;12.70;100.00;97248.00;5083115;28;20512;-70
2023/08/31 01:39:50;;;;;;;4.33;3.93;;;13.50;99.90;;;13.27;100.00;97303.88;5092890;28;20521;-71
2023/08/31 01:42:19;;;;;;;4.33;3.80;;;13.50;99.90;;;13.24;100.00;97315.22;5090341;28;20454;-70
2023/08/31 01:44:49;;;;;;;4.70;4.30;;;13.50;99.90;;;13.35;100.00;97331.63;5088856;28;20442;-71
2023/08/31 01:47:19;;;;;;;4.93;4.40;;;13.50;99.90;;;13.36;100.00;97311.56;5091868;28;20920;-70
2023/08/31 01:49:46;;;;;;;4.90;4.50;;;13.60;99.90;;;13.39;100.00;97316.50;5092710;28;20442;-71
2023/08/31 01:52:13;;;;;;;4.70;4.30;;;13.60;99.90;;;13.20;100.00;97313.28;5091584;28;20459;-70
2023/08/31 01:54:41;;;;;;;4.63;4.27;;;13.50;99.90;;;13.18;100.00;97317.03;5092387;28;20504;-71
2023/08/31 01:57:08;;;;;;;4.77;4.37;;;13.50;99.90;;;13.17;100.00;97317.28;5092147;28;20479;-70
2023/08/31 01:59:36;;;;;;;4.60;4.20;;;13.40;99.90;;;13.19;100.00;97296.16;5091260;28;20458;-70
2023/08/31 02:02:04;;;;;;;5.17;4.77;;;13.50;99.90;;;12.90;100.00;97271.91;5090203;28;20454;-71
2023/08/31 02:04:31;;;;;;;5.33;4.83;;;13.50;99.90;;;12.87;100.00;97269.69;5097596;28;20448;-71
2023/08/31 02:06:58;;;;;;;6.13;5.10;;;13.40;99.90;;;13.00;100.00;97320.84;5085082;28;20443;-70
2023/08/31 02:09:26;;;;;;;5.07;4.57;;;13.40;99.90;;;13.08;100.00;97332.34;5091844;28;20442;-70
2023/08/31 02:11:53;;;;;;;5.63;4.77;;;13.30;99.90;;;13.17;100.00;97339.00;5087861;28;20454;-70
2023/08/31 02:14:20;;;;;;;5.93;4.90;;;13.40;99.90;;;13.23;100.00;97343.41;5089486;28;20458;-70
2023/08/31 02:16:48;;;;;;;4.93;4.50;;;13.40;99.90;;;13.20;100.00;97343.91;5089506;28;20486;-70
2023/08/31 02:19:15;;;;;;;5.30;4.67;;;13.50;99.90;;;13.19;100.00;97342.28;5084857;28;20509;-70
2023/08/31 02:21:43;;;;;;;5.20;4.70;;;13.50;99.90;;;13.26;100.00;97340.19;5089789;28;20455;-71
2023/08/31 02:24:10;;;;;;;7.20;4.50;;;13.50;99.90;;;13.24;100.00;97345.03;5091605;28;20841;-70
2023/08/31 02:26:38;;;;;;;6.00;4.80;;;13.50;99.90;;;13.23;100.00;97329.84;5090256;28;20441;-70
2023/08/31 02:29:05;;;;;;;5.10;4.70;;;13.50;99.90;;;13.19;100.00;97342.28;5105313;28;20491;-69
2023/08/31 02:31:32;;;;;;;4.70;4.20;;;13.40;99.90;;;13.13;100.00;97343.28;5090711;28;20462;-70
2023/08/31 02:34:01;;;;;;;4.37;4.07;;;13.40;99.90;;;13.00;100.00;97328.16;5086879;28;20458;-70
2023/08/31 02:36:28;;;;;;;5.53;4.50;;;13.30;99.90;;;12.89;100.00;97338.88;5090602;28;20526;-71
2023/08/31 02:38:55;;;;;;;4.40;4.00;;;13.20;99.90;;;12.88;100.00;97341.81;5090804;28;20921;-70
2023/08/31 02:41:22;;;;;;;7.43;5.17;;;13.20;99.90;;;12.84;100.00;97352.31;5089255;28;20934;-68
2023/08/31 02:43:52;;;;;;;5.30;4.63;;;13.10;99.90;;;12.84;100.00;97351.50;5091464;28;20516;-70
2023/08/31 02:46:19;;;;;;;6.17;5.57;;;13.10;99.90;;;12.94;100.00;97350.84;5091315;28;20480;-70
2023/08/31 02:48:47;;;;;;;6.00;5.40;;;13.20;99.90;;;12.87;100.00;97342.88;5090956;28;20515;-71
2023/08/31 02:51:15;;;;;;;4.87;4.47;;;13.10;99.90;;;12.81;100.00;97338.44;5089921;28;20499;-71
2023/08/31 02:53:43;;;;;;;6.33;5.47;;;13.00;99.90;;;12.63;100.00;97334.91;5090545;28;20483;-71
2023/08/31 02:56:10;;;;;;;5.53;4.50;;;13.00;99.90;;;12.61;100.00;97337.88;5091205;28;20447;-71
2023/08/31 02:58:37;;;;;;;4.67;4.27;;;12.90;99.90;;;12.52;100.00;97335.81;5090900;28;20446;-69
2023/08/31 03:01:11;;;;;;;5.33;4.90;;;12.80;99.90;;;12.51;100.00;97334.97;5089554;28;20461;-70
2023/08/31 03:03:38;;;;;;;4.87;4.47;;;12.70;99.90;;;12.41;100.00;97332.91;5090509;28;20922;-70
2023/08/31 03:06:08;;;;;;;5.77;5.20;;;12.70;99.90;;;12.29;100.00;97334.84;5091258;28;20452;-70
2023/08/31 03:08:37;;;;;;;6.17;5.67;;;12.60;99.90;;;11.80;100.00;97257.59;5089053;28;20477;-71
2023/08/31 03:11:05;;;;;;;5.37;4.87;;;12.60;99.90;;;12.24;100.00;97334.78;5088363;28;20468;-71
2023/08/31 03:13:33;;;;;;;5.00;4.60;;;12.50;99.90;;;12.27;100.00;97337.00;5085233;28;20442;-70
2023/08/31 03:16:01;;;;;;;5.43;5.00;;;12.50;99.90;;;12.17;100.00;97341.16;5089504;28;20452;-70
2023/08/31 03:18:28;;;;;;;5.10;4.63;;;12.50;99.90;;;12.10;100.00;97340.47;5087505;28;20525;-70
2023/08/31 03:20:56;;;;;;;6.63;6.00;;;12.40;99.90;;;12.07;100.00;97342.84;5082977;28;20523;-70
2023/08/31 03:23:23;;;;;;;6.93;6.20;;;12.40;99.90;;;11.38;100.00;97260.56;5087027;28;20457;-70
2023/08/31 03:25:51;;;;;;;5.90;5.40;;;12.30;99.90;;;11.90;100.00;97360.66;5090236;28;20969;-68
2023/08/31 03:28:19;;;;;;;6.23;5.73;;;12.30;99.90;;;11.90;100.00;97371.50;5090138;28;20457;-70
2023/08/31 03:30:46;;;;;;;6.70;5.80;;;12.30;99.90;;;11.93;100.00;97367.47;5087739;28;20536;-70
2023/08/31 03:33:13;;;;;;;6.27;5.77;;;12.20;99.90;;;11.93;100.00;97369.34;5089641;28;20462;-69
2023/08/31 03:35:40;;;;;;;6.57;5.97;;;12.30;99.90;;;11.92;100.00;97373.13;5089521;28;20465;-70
2023/08/31 03:38:07;;;;;;;10.33;6.10;;;12.20;99.90;;;11.88;100.00;97387.13;5080447;28;20466;-70
2023/08/31 03:40:35;;;;;;;7.33;6.70;;;12.20;99.90;;;11.85;100.00;97378.69;5090371;28;20537;-69
2023/08/31 03:43:04;;;;;;;8.53;6.57;;;12.20;99.90;;;11.78;100.00;97376.09;5087003;28;20446;-69
2023/08/31 03:45:31;;;;;;;7.13;6.50;;;12.10;99.90;;;11.81;100.00;97369.38;5090138;28;20444;-70
2023/08/31 03:47:58;;;;;;;8.10;7.30;;;12.10;99.90;;;11.79;100.00;97377.75;5089144;28;20443;-69
2023/08/31 03:50:26;;;;;;;7.37;6.77;;;12.20;99.90;;;11.72;100.00;97380.59;5094498;28;20855;-69
2023/08/31 03:52:53;;;;;;;8.00;6.83;;;12.10;99.90;;;11.66;100.00;97380.72;5089749;28;20455;-70
2023/08/31 03:55:20;;;;;;;7.47;6.77;;;12.00;99.90;;;11.67;100.00;97390.47;5090309;28;20521;-70
2023/08/31 03:57:47;;;;;;;8.40;7.60;;;12.00;99.90;;;11.74;100.00;97402.81;5090391;28;20475;-70
2023/08/31 04:00:17;;;;;;;7.70;7.00;;;12.00;99.90;;;11.67;100.00;97401.28;5088171;28;20450;-70
2023/08/31 04:02:44;;;;;;;7.27;6.67;;;12.00;99.90;;;11.45;100.00;97397.31;5090714;28;20441;-70
2023/08/31 04:05:11;;;;;;;7.50;6.73;;;11.90;99.90;;;11.44;100.00;97402.94;5090335;28;20526;-69
2023/08/31 04:07:39;;;;;;;7.30;6.60;;;11.80;99.90;;;11.51;100.00;97411.78;5090447;28;20490;-69
2023/08/31 04:10:07;;;;;;;7.93;6.70;;;11.80;99.90;;;11.53;100.00;97409.66;5088238;28;20513;-70
2023/08/31 04:12:35;;;;;;;8.00;7.20;;;11.80;99.90;;;11.50;100.00;97418.25;5085707;28;20467;-69
2023/08/31 04:15:04;;;;;;;8.00;6.87;;;11.80;99.90;;;11.39;100.00;97419.06;5090320;28;20539;-70
2023/08/31 04:17:32;;;;;;;8.60;6.90;;;11.80;99.90;;;11.40;100.00;97420.72;5087670;28;21019;-69
2023/08/31 04:19:59;;;;;;;7.60;6.90;;;11.80;99.90;;;11.45;100.00;97434.38;5084713;28;20497;-70
2023/08/31 04:22:27;;;;;;;9.40;7.40;;;11.80;99.90;;;11.69;100.00;97434.34;5089459;28;20513;-69
2023/08/31 04:24:54;;;;;;;14.30;8.40;;;12.00;99.90;;;11.70;100.00;97434.13;5090002;28;20454;-69
2023/08/31 04:27:22;;;;;;;10.73;8.27;;;12.00;99.90;;;11.73;100.00;97435.50;5099837;28;20778;-69
2023/08/31 04:29:49;;;;;;;8.43;7.63;;;12.00;99.90;;;11.60;100.00;97434.72;5090504;28;20464;-69
2023/08/31 04:32:16;;;;;;;11.93;8.70;;;12.00;99.90;;;11.72;100.00;97444.69;5087712;28;20446;-69
2023/08/31 04:34:44;;;;;;;8.43;7.50;;;12.10;99.90;;;11.82;100.00;97447.63;5092135;28;20449;-69
2023/08/31 04:37:11;;;;;;;8.83;8.03;;;12.10;99.90;;;11.84;100.00;97445.50;5093402;28;20538;-69
2023/08/31 04:39:38;;;;;;;8.10;7.30;;;12.20;99.90;;;11.71;100.00;97452.00;5092248;28;20463;-70
2023/08/31 04:42:06;;;;;;;7.53;6.83;;;12.10;99.90;;;11.61;100.00;97455.31;5092983;28;20449;-69
2023/08/31 04:44:33;;;;;;;10.20;7.67;;;12.00;99.90;;;11.52;100.00;97451.28;5093874;28;20452;-69
2023/08/31 04:47:00;;;;;;;12.73;7.30;;;11.90;99.90;;;11.48;100.00;97461.75;5094028;28;20456;-70
2023/08/31 04:49:28;;;;;;;9.83;8.87;;;11.80;99.90;;;11.57;100.00;97467.63;5092354;28;20456;-68
2023/08/31 04:51:57;;;;;;;12.60;9.53;;;11.80;99.90;;;11.77;100.00;97474.59;5099954;28;20781;-69
2023/08/31 04:54:25;;;;;;;13.27;9.73;;;12.00;99.90;;;11.90;100.00;97485.19;5085732;28;20449;-70
2023/08/31 04:56:52;;;;;;;10.00;8.97;;;12.20;99.90;;;11.92;100.00;97481.41;5089373;28;20845;-70
2023/08/31 04:59:19;;;;;;;10.27;9.30;;;12.20;99.90;;;11.88;100.00;97481.84;5091849;28;20722;-71
2023/08/31 05:01:47;;;;;;;14.23;10.00;;;12.20;99.90;;;11.74;100.00;97483.16;5092586;28;20934;-70
2023/08/31 05:04:14;;;;;;;12.63;10.80;;;12.10;99.90;;;11.70;100.00;97495.53;5092041;28;21000;-70
2023/08/31 05:06:41;;;;;;;13.70;10.40;;;12.10;99.90;;;11.14;100.00;97403.88;5094202;28;20950;-69
2023/08/31 05:09:10;;;;;;;15.10;12.10;;;12.00;99.90;;;11.66;100.00;97484.34;5083949;28;20452;-68
2023/08/31 05:11:37;;;;;;;11.87;10.67;;;12.00;99.90;;;11.73;100.00;97498.59;5087624;28;20489;-69
2023/08/31 05:14:05;;;;;;;12.87;9.80;;;12.10;99.90;;;11.78;100.00;97487.06;5090793;28;20445;-69
2023/08/31 05:16:32;;;;;;;12.93;10.90;;;12.10;99.90;;;11.74;100.00;97497.53;5091940;28;20434;-69
2023/08/31 05:18:59;;;;;;;12.43;9.67;;;12.10;99.90;;;11.83;100.00;97489.03;5085619;28;20470;-70
2023/08/31 05:21:26;;;;;;;16.43;10.50;;;12.20;99.90;;;11.88;100.00;97500.81;5087476;28;20469;-70
2023/08/31 05:23:53;;;;;;;12.63;10.80;;;12.20;99.90;;;11.99;100.00;97503.75;5090777;28;20577;-70
2023/08/31 05:26:22;;;;;;;12.03;10.93;;;12.30;99.90;;;12.00;100.00;97506.22;5091869;28;20510;-71
2023/08/31 05:28:49;;;;;;;11.47;10.27;;;12.30;99.90;;;12.13;100.00;97512.47;5091588;28;20445;-70
2023/08/31 05:31:17;;;;;;;13.10;10.33;;;12.40;99.90;;;12.27;100.00;97515.75;5092439;28;20486;-70
2023/08/31 05:33:44;;;;;;;11.00;9.80;;;12.50;99.90;;;12.24;100.00;97510.81;5091015;28;20450;-69
2023/08/31 05:36:11;;;;;;;12.03;10.30;;;12.60;99.90;;;12.35;100.00;97514.56;5092782;28;20458;-70
2023/08/31 05:38:39;;;;;;;11.40;10.20;;;12.60;99.90;;;12.40;100.00;97515.47;5091408;28;20985;-70
2023/08/31 05:41:07;;;;;;;12.87;11.33;;;12.70;99.90;;;12.40;100.00;97520.06;5091131;28;20457;-70
2023/08/31 05:43:36;;;;;;;11.20;10.20;;;12.70;99.90;;;12.35;100.00;97507.22;5092020;28;20454;-69
2023/08/31 05:46:04;;;;;;;12.10;10.40;;;12.70;99.90;;;12.26;100.00;97500.56;5090646;28;20487;-70
2023/08/31 05:48:31;;;;;;;11.60;10.40;;;12.60;99.90;;;12.31;100.00;97506.06;5092547;28;20463;-70
2023/08/31 05:50:59;;;;;;;15.40;11.70;;;12.60;99.90;;;12.37;100.00;97515.97;5091509;28;20461;-69
2023/08/31 05:53:27;;;;;;;12.67;11.37;;;12.70;99.90;;;12.36;100.00;97503.50;5091731;28;20511;-70
2023/08/31 05:56:03;;;;;;;12.10;10.80;;;12.80;99.90;;;12.61;100.00;97516.72;5090843;28;20863;-69
2023/08/31 05:58:30;;;;;;;13.90;11.43;;;12.90;99.90;;;12.71;100.00;97526.94;5083916;28;20461;-70
2023/08/31 06:00:59;;;;;;;12.43;11.30;;;13.00;99.90;;;12.81;100.00;97526.31;5089397;28;20922;-69
2023/08/31 06:03:27;;;;;;;11.37;10.23;;;13.10;99.90;;;12.87;100.00;97527.22;5090276;28;20455;-70
2023/08/31 06:05:55;;;;;;;12.93;11.63;;;13.20;99.90;;;13.13;98.93;97538.56;5090811;28;20508;-70
2023/08/31 06:08:22;;;;;;;12.10;11.00;;;13.40;99.00;;;13.29;97.99;97535.03;5087274;28;20451;-69
2023/08/31 06:10:49;;;;;;;12.43;11.23;;;13.60;98.50;;;13.29;96.44;97537.75;5071756;28;20508;-70
2023/08/31 06:13:17;;;;;;;12.40;11.10;;;13.70;96.90;;;13.38;95.06;97538.16;5090385;28;20446;-70
2023/08/31 06:15:44;;;;;;;11.80;10.60;;;13.80;96.10;;;13.45;96.34;97535.31;5104790;28;21004;-70
2023/08/31 06:18:13;;;;;;;14.57;11.23;;;13.80;96.00;;;13.67;94.18;97534.56;5072839;28;20915;-70
2023/08/31 06:20:40;;;;;;;12.93;11.60;;;14.00;95.40;;;13.66;94.51;97530.22;5087353;28;20465;-70
2023/08/31 06:23:08;;;;;;;12.13;10.40;;;14.00;94.90;;;13.63;93.68;97536.16;5090814;28;20454;-70
2023/08/31 06:25:35;;;;;;;11.63;10.17;;;14.00;94.40;;;13.83;92.23;97544.59;5090536;28;20450;-72
2023/08/31 06:28:05;;;;;;;16.37;10.70;;;14.10;94.20;;;13.78;92.66;97541.81;5091356;28;20915;-70
2023/08/31 06:30:32;;;;;;;22.30;11.23;;;14.20;93.80;;;13.90;92.58;97549.88;5090095;28;20456;-71
2023/08/31 06:32:59;;;;;;;12.23;11.03;;;14.30;94.10;;;14.20;90.45;97545.94;5088234;28;20931;-70
2023/08/31 06:35:28;;;;;;;11.13;10.10;;;14.40;93.60;;;14.35;90.47;97539.06;5087818;28;20511;-72
2023/08/31 06:37:55;;;;;;;12.60;9.47;;;14.60;93.60;;;14.20;89.98;97550.56;5091438;28;20492;-71
2023/08/31 06:40:23;;;;;;;10.70;9.80;;;14.60;92.80;;;14.04;88.65;97553.06;5102810;28;20439;-70
2023/08/31 06:42:50;;;;;;;12.73;9.80;;;14.60;92.30;;;14.05;90.88;97548.44;5091936;28;20463;-70
2023/08/31 06:45:17;;;;;;;10.63;9.13;;;14.50;93.00;;;13.78;91.35;97555.38;5091087;28;20464;-73
2023/08/31 06:47:45;;;;;;;11.00;9.77;;;14.30;92.60;;;13.90;90.86;97558.00;5091263;28;20439;-70
2023/08/31 06:50:12;;;;;;;10.10;9.17;;;14.30;93.00;;;14.11;90.28;97558.34;5083577;28;20459;-70
2023/08/31 06:52:41;;;;;;;13.23;10.10;;;14.30;93.30;;;14.36;89.97;97559.75;5089211;28;20930;-71
2023/08/31 06:55:10;;;;;;;10.47;9.47;;;14.60;93.10;;;14.53;87.83;97563.22;5089827;28;20450;-70
2023/08/31 06:57:38;;;;;;;10.57;9.50;;;14.70;92.40;;;14.32;88.25;97564.84;5090249;28;20471;-70
2023/08/31 07:00:08;;;;;;;10.00;9.00;;;14.80;92.10;;;14.44;87.60;97568.28;5089310;28;20438;-70
2023/08/31 07:02:35;;;;;;;12.13;9.23;;;14.90;91.90;;;14.38;87.46;97569.28;5086186;28;20447;-70
2023/08/31 07:05:03;;;;;;;10.37;9.37;;;14.90;91.70;;;14.73;87.61;97570.84;5091085;28;20432;-70
2023/08/31 07:07:30;;;;;;;11.33;10.23;;;14.90;92.10;;;14.86;85.77;97574.25;5090045;28;20459;-69
2023/08/31 07:09:59;;;;;;;9.63;8.67;;;15.10;91.70;;;15.09;87.14;97575.03;5090870;28;20450;-72
2023/08/31 07:12:27;;;;;;;9.90;8.90;;;15.30;92.00;;;15.38;83.10;97574.78;5081990;28;20953;-69
2023/08/31 07:14:54;;;;;;;8.53;7.80;;;15.60;91.20;;;15.29;83.00;97577.16;5078873;28;20488;-69
2023/08/31 07:17:21;;;;;;;9.13;8.23;;;15.60;90.70;;;15.21;80.59;97512.31;5090329;28;20465;-69
2023/08/31 07:19:49;;;;;;;8.03;7.10;;;15.90;90.50;;;15.48;78.88;97564.00;5085367;28;20534;-69
2023/08/31 07:22:15;;;;;;;8.37;7.37;;;15.90;89.60;;;15.34;81.46;97587.28;5083392;28;20455;-70
2023/08/31 07:24:44;;;;;;;8.20;7.40;;;15.90;90.00;;;15.58;80.03;97585.88;5089613;28;20444;-70
2023/08/31 07:27:12;;;;;;;7.13;6.30;;;15.80;89.80;;;15.38;79.01;97585.66;5090795;28;20597;-70
2023/08/31 07:29:40;;;;;;;9.97;6.60;;;15.80;88.80;;;15.42;78.64;97587.63;5088731;28;20473;-70
2023/08/31 07:32:07;;;;;;;6.60;5.93;;;15.70;88.80;;;15.52;77.71;97603.22;5088667;28;20463;-70
2023/08/31 07:34:35;;;;;;;6.07;5.57;;;15.80;88.40;;;15.24;76.52;97594.28;5089380;28;20454;-71
2023/08/31 07:37:03;;;;;;;6.77;5.20;;;15.70;87.30;;;15.52;76.04;97592.34;5098055;28;20459;-70
2023/08/31 07:39:32;;;;;;;5.67;5.10;;;15.70;87.30;;;15.85;74.96;97598.66;5088501;28;20553;-71
2023/08/31 07:41:59;;;;;;;6.40;4.87;;;16.00;87.30;;;16.04;72.33;97598.25;5102006;28;20454;-70
2023/08/31 07:44:28;;;;;;;5.53;5.03;;;16.30;85.70;;;15.85;73.81;97601.38;5090668;28;20447;-69
2023/08/31 07:46:55;;;;;;;7.80;5.10;;;16.30;85.80;;;16.16;72.44;97605.44;5089517;28;20548;-70
2023/08/31 07:49:22;;;;;;;5.83;5.10;;;16.40;85.30;;;16.19;72.05;97604.91;5090409;28;20454;-69
2023/08/31 07:51:50;;;;;;;5.97;5.37;;;16.50;85.00;;;16.60;71.38;97607.03;5089885;28;20451;-69
2023/08/31 07:54:21;;;;;;;4.80;4.30;;;16.70;85.30;;;16.76;68.75;97591.59;5090455;28;20531;-69
2023/08/31 07:56:49;;;;;;;4.37;3.93;;;17.00;83.80;;;16.75;68.49;97600.84;5090009;28;20964;-70
2023/08/31 07:59:17;;;;;;;4.80;3.97;;;17.10;83.10;;;16.87;68.31;97612.34;5089817;28;20468;-69
2023/08/31 08:01:48;;;;;;;4.73;4.20;;;17.10;83.10;;;16.89;68.31;97612.09;5085536;28;20467;-69
2023/08/31 08:04:15;;;;;;;6.27;4.00;;;17.10;83.10;;;16.90;67.07;97614.53;5089071;28;20451;-70
2023/08/31 08:06:42;;;;;;;4.13;3.67;;;17.20;82.20;;;17.10;67.70;97618.47;5090516;28;20456;-69
2023/08/31 08:09:10;;;;;;;4.40;4.00;;;17.30;82.70;;;17.18;66.26;97615.22;5084607;28;20518;-69
2023/08/31 08:11:37;;;;;;;6.77;4.27;;;17.50;81.90;;;17.51;66.05;97617.75;5098311;28;20448;-70
2023/08/31 08:14:04;;;;;;;4.90;3.73;;;17.60;82.10;;;17.73;64.71;97614.78;5090445;28;20924;-70
2023/08/31 08:16:31;;;;;;;4.30;3.90;;;17.90;81.40;;;18.27;63.41;97623.53;5094347;28;20448;-70
2023/08/31 08:19:00;;;;;;;3.90;2.93;;;18.20;81.20;;;18.01;62.06;97609.03;5089834;28;20878;-69
2023/08/31 08:21:27;;;;;;;4.03;3.30;;;18.20;79.00;;;17.81;64.66;97616.16;5093287;28;21178;-69
2023/08/31 08:23:54;;;;;;;4.00;2.83;;;18.20;80.00;;;18.00;61.45;97624.63;5094698;28;20440;-68
2023/08/31 08:26:21;;;;;;;4.60;3.80;;;18.30;78.30;;;17.77;62.63;97626.00;5093914;28;20453;-69
2023/08/31 08:28:49;;;;;;;3.90;3.07;;;17.90;78.50;;;18.00;62.31;97630.09;5105640;28;20455;-69
2023/08/31 08:31:16;;;;;;;3.67;2.23;;;18.10;78.80;;;17.56;59.75;97632.25;5091273;28;20938;-69
2023/08/31 08:33:43;;;;;;;2.63;2.43;;;18.00;76.00;;;17.53;58.62;97624.59;5091859;28;20436;-68
2023/08/31 08:36:12;;;;;;;5.03;2.30;;;17.80;75.20;;;17.28;59.40;97630.78;5093699;28;20439;-70
2023/08/31 08:38:39;;;;;;;2.77;2.57;;;17.60;75.10;;;17.61;59.50;97633.34;5094834;28;20462;-70
2023/08/31 08:41:07;;;;;;;6.10;3.27;;;17.60;75.70;;;17.66;58.60;97638.78;5082569;28;20449;-70
2023/08/31 08:43:35;;;;;;;3.20;2.10;;;17.80;74.90;;;17.44;58.88;97622.66;5093002;28;20449;-70
2023/08/31 08:46:07;;;;;;;6.53;2.50;;;17.70;74.70;;;17.67;59.59;97624.88;5092375;28;20534;-70
2023/08/31 08:48:35;;;;;;;4.33;2.80;;;17.80;75.30;;;17.81;59.74;97632.53;5092497;28;20487;-69
2023/08/31 08:51:04;;;;;;;5.43;2.50;;;17.80;75.60;;;17.25;62.00;97632.19;5093742;28;20446;-70
2023/08/31 08:53:33;;;;;;;3.33;2.70;;;17.50;76.30;;;17.33;60.47;97627.25;5102797;28;20968;-69
2023/08/31 08:56:00;;;;;;;4.30;2.50;;;17.50;75.50;;;17.73;59.31;97628.44;5093388;28;20447;-71
2023/08/31 08:58:27;;;;;;;3.33;2.43;;;17.80;74.90;;;18.09;59.42;97625.72;5091743;28;20797;-70
2023/08/31 09:00:57;;;;;;;3.93;2.57;;;18.10;75.60;;;18.17;57.76;97637.22;5108636;28;20501;-70
2023/08/31 09:03:25;;;;;;;2.80;2.47;;;18.40;74.10;;;18.09;57.65;97628.47;5087958;28;20550;-70
2023/08/31 09:05:52;;;;;;;2.50;2.30;;;18.40;73.70;;;18.11;55.53;97637.22;5090622;28;20790;-69
2023/08/31 09:08:27;;;;;;;2.50;2.23;;;18.40;72.10;;;17.52;56.68;97639.34;5087673;28;20571;-69
2023/08/31 09:10:58;;;;;;;4.07;2.40;;;17.90;71.40;;;17.47;57.18;97628.38;5091642;28;20500;-70
2023/08/31 09:13:28;;;;;;;3.10;2.03;;;17.70;71.90;;;17.51;57.00;97634.94;5091341;28;20462;-70
2023/08/31 09:15:57;;;;;;;5.30;2.10;;;17.80;72.00;;;17.25;58.17;97637.63;5093585;28;20536;-70
2023/08/31 09:18:26;;;;;;;2.67;2.43;;;17.50;72.40;;;16.64;60.38;97651.78;5091647;28;20566;-70
2023/08/31 09:20:54;;;;;;;3.40;2.40;;;17.00;73.20;;;16.38;60.75;97647.00;5085447;28;20458;-69
2023/08/31 09:23:21;;;;;;;5.57;2.30;;;16.70;73.50;;;16.54;60.52;97647.09;5091269;28;20513;-70
2023/08/31 09:25:50;;;;;;;2.60;2.40;;;16.70;73.80;;;16.65;59.57;97643.34;5091737;28;20531;-69
2023/08/31 09:28:23;;;;;;;3.23;2.13;;;16.90;73.00;;;16.74;59.08;97637.38;5092409;28;20463;-70
2023/08/31 09:30:52;;;;;;;3.13;2.00;;;16.90;72.40;;;16.63;57.90;97648.25;5093118;28;20456;-70
2023/08/31 09:33:21;;;;;;;3.90;2.13;;;16.90;71.50;;;16.74;58.87;97645.56;5092197;28;20455;-70
2023/08/31 09:35:53;;;;;;;2.00;1.80;;;16.90;72.40;;;16.59;56.42;97605.41;5091562;28;20448;-70
2023/08/31 09:38:20;;;;;;;2.93;2.10;;;17.10;70.70;;;16.98;53.34;97654.97;5092414;28;20497;-70
2023/08/31 09:40:48;;;;;;;2.00;1.60;;;17.20;68.20;;;16.97;53.57;97631.50;5104615;28;20470;-68
2023/08/31 09:43:22;;;;;;;2.53;1.87;;;17.30;67.90;;;17.59;52.80;97662.84;5090684;28;20450;-71
2023/08/31 09:45:50;;;;;;;2.43;1.90;;;17.60;67.80;;;17.65;51.48;97650.81;5092771;28;20443;-70
2023/08/31 09:48:17;;;;;;;2.00;1.70;;;17.80;66.40;;;18.19;50.64;97640.50;5103830;28;20451;-70
2023/08/31 09:50:46;;;;;;;2.70;1.77;;;18.30;66.30;;;18.72;49.17;97644.78;5092443;28;21006;-72
2023/08/31 09:53:17;;;;;;;2.30;1.83;;;18.70;65.10;;;18.50;48.46;97654.13;5090188;28;20483;-71
2023/08/31 09:55:45;;;;;;;2.70;1.73;;;18.80;63.80;;;17.75;49.96;97639.91;5091520;28;20527;-71
2023/08/31 09:58:13;;;;;;;2.67;2.20;;;18.30;63.30;;;17.59;50.21;97651.91;5092067;28;20986;-70
2023/08/31 10:00:43;;;;;;;2.20;2.00;;;18.00;63.50;;;17.64;50.10;97655.47;5090194;28;20441;-70
2023/08/31 10:03:14;;;;;;;2.60;1.83;;;17.90;63.30;;;17.81;50.67;97646.19;5090077;28;20539;-69
2023/08/31 10:05:41;;;;;;;6.17;2.20;;;17.90;63.90;;;18.28;50.66;97649.81;5090451;28;20444;-70
2023/08/31 10:08:09;;;;;;;2.40;2.20;;;18.30;64.70;;;18.76;48.80;97637.66;5092025;28;20449;-70
2023/08/31 10:10:37;;;;;;;2.50;2.30;;;18.70;63.70;;;19.36;48.21;97639.63;5091969;28;20448;-69
2023/08/31 10:13:06;;;;;;;5.70;2.27;;;19.20;63.70;;;19.37;47.27;97649.50;5090062;28;20981;-71
2023/08/31 10:15:35;;;;;;;4.50;1.80;;;19.40;62.60;;;19.48;47.21;97645.56;5090560;28;20445;-70
2023/08/31 10:18:05;;;;;;;4.20;2.50;;;19.60;62.30;;;19.11;47.91;97652.34;5091858;28;20510;-70